Time;durP1;ratioP1;P1;durP2;ratioP2;P2;SDS_P1;SDS_P2;PMS_P1;PMS_P2;Temp;Humidity;BMP_temperature;BMP_pressure;BME280_temperature;BME280_humidity;BME280_pressure;Samples;Min_cycle;Max_cycle;Signal;HPM_P1;HPM_P2
2023/08/29 00:00:27;;;;;;;3.77;3.40;;;;;;;15.52;76.33;98964.88;5017759;28;20286;-76
2023/08/29 00:02:53;;;;;;;3.80;3.50;;;;;;;15.47;76.25;98968.81;5018240;28;20222;-78
2023/08/29 00:05:19;;;;;;;6.53;4.30;;;;;;;15.44;76.38;98968.25;5019139;28;20349;-77
2023/08/29 00:07:45;;;;;;;6.07;5.20;;;;;;;15.39;76.46;98968.69;5019892;28;20195;-76
2023/08/29 00:10:10;;;;;;;4.40;3.90;;;;;;;15.38;76.43;98960.88;5018278;28;20485;-76
2023/08/29 00:12:36;;;;;;;4.77;4.37;;;;;;;15.34;76.53;98956.84;5020732;28;20232;-76
2023/08/29 00:15:04;;;;;;;7.10;4.43;;;;;;;15.35;76.76;98959.38;5020228;28;20373;-78
2023/08/29 00:17:29;;;;;;;4.60;4.20;;;;;;;15.37;76.96;98962.72;5021591;28;20627;-78
2023/08/29 00:19:55;;;;;;;4.63;3.33;;;;;;;15.39;76.90;98958.13;5022490;28;20515;-78
2023/08/29 00:22:20;;;;;;;5.00;3.53;;;;;;;15.42;76.78;98960.47;5040326;28;20202;-77
2023/08/29 00:24:47;;;;;;;4.40;3.60;;;;;;;15.44;76.78;98958.50;5040430;28;20209;-79
2023/08/29 00:27:12;;;;;;;3.70;3.40;;;;;;;15.47;76.74;98954.72;5037863;28;20244;-78
2023/08/29 00:29:38;;;;;;;4.00;3.10;;;;;;;15.44;76.70;98955.00;5036058;28;20212;-78
2023/08/29 00:32:05;;;;;;;4.20;3.38;;;;;;;15.43;76.44;98954.19;5022577;28;20232;-78
2023/08/29 00:34:31;;;;;;;4.47;3.00;;;;;;;15.44;76.56;98952.38;5039969;28;20225;-79
2023/08/29 00:36:56;;;;;;;4.23;3.10;;;;;;;15.46;76.40;98953.88;5035740;28;20288;-79
2023/08/29 00:39:22;;;;;;;3.20;2.90;;;;;;;15.48;76.40;98959.06;5022187;28;20202;-79
2023/08/29 00:41:49;;;;;;;3.73;3.30;;;;;;;15.51;76.45;98955.28;5019348;28;20301;-79
2023/08/29 00:44:17;;;;;;;3.45;3.15;;;;;;;15.54;76.28;98955.00;5037551;28;20197;-79
2023/08/29 00:46:45;;;;;;;7.65;4.72;;;;;;;15.54;76.25;98958.47;5037029;28;20540;-80
2023/08/29 00:49:13;;;;;;;4.28;3.90;;;;;;;15.55;76.14;98956.66;5039150;28;20597;-80
2023/08/29 00:51:39;;;;;;;3.58;3.05;;;;;;;15.54;76.32;98962.94;5023101;28;20660;-79
2023/08/29 00:54:06;;;;;;;4.40;3.63;;;;;;;15.52;76.23;98960.41;5039686;28;20190;-79
2023/08/29 00:56:32;;;;;;;3.72;3.42;;;;;;;15.45;76.44;98962.81;5037785;28;20321;-78
2023/08/29 00:59:01;;;;;;;5.40;3.97;;;;;;;15.42;76.49;98960.47;5019229;28;20210;-79
2023/08/29 01:01:28;;;;;;;6.22;4.28;;;;;;;15.43;76.40;98966.59;5039791;28;20256;-79
2023/08/29 01:03:55;;;;;;;4.82;3.92;;;;;;;15.42;76.66;98962.28;5039672;28;20217;-79
2023/08/29 01:06:21;;;;;;;6.85;5.90;;;;;;;15.43;76.66;98966.59;5037350;28;20451;-80
2023/08/29 01:08:46;;;;;;;5.40;4.70;;;;;;;15.45;76.78;98973.41;5037671;28;20194;-79
2023/08/29 01:11:41;;;;;;;9.67;5.90;;;;;;;15.48;76.69;98959.06;5038095;28;20245;-80
2023/08/29 01:14:19;;;;;;;5.15;4.13;;;;;;;15.48;76.73;98965.19;5038721;28;20499;-79
2023/08/29 01:16:54;;;;;;;4.68;4.28;;;;;;;15.47;76.57;98963.53;5040070;28;20197;-79
2023/08/29 01:19:22;;;;;;;5.75;5.15;;;;;;;15.45;76.64;98962.00;5022856;28;20205;-79
2023/08/29 01:22:05;;;;;;;7.22;5.95;;;;;;;15.44;76.64;98962.94;5041330;28;20229;-79
2023/08/29 01:24:40;;;;;;;9.20;6.60;;;;;;;15.42;76.71;98965.75;5040003;28;20194;-80
2023/08/29 01:27:06;;;;;;;6.45;5.10;;;;;;;15.43;76.72;98966.59;5024984;28;20561;-80
2023/08/29 01:29:33;;;;;;;7.35;6.15;;;;;;;15.44;76.80;98962.94;5024842;28;20290;-80
2023/08/29 01:31:59;;;;;;;6.73;6.03;;;;;;;15.44;76.70;98961.13;5023813;28;20902;-80
2023/08/29 01:34:26;;;;;;;6.35;5.75;;;;;;;15.44;76.72;98952.38;5023838;28;20461;-80
2023/08/29 01:36:52;;;;;;;8.60;7.70;;;;;;;15.46;76.95;98967.13;5022656;28;21517;-79
2023/08/29 01:39:17;;;;;;;6.30;5.80;;;;;;;15.47;77.02;98957.38;5038873;28;20277;-79
2023/08/29 01:41:43;;;;;;;6.00;5.33;;;;;;;15.47;77.05;98957.38;5020202;28;20285;-80
2023/08/29 01:44:08;;;;;;;6.87;5.70;;;;;;;15.48;76.88;98961.69;5034878;28;20204;-80
2023/08/29 01:46:34;;;;;;;6.43;5.73;;;;;;;15.49;76.91;98956.25;5021723;28;20199;-79
2023/08/29 01:49:02;;;;;;;7.90;6.90;;;;;;;15.51;76.82;98956.13;5019205;28;20221;-80
2023/08/29 01:51:28;;;;;;;10.13;7.07;;;;;;;15.53;76.62;98959.47;5019997;28;20714;-80
2023/08/29 01:53:54;;;;;;;7.70;6.90;;;;;;;15.54;76.60;98963.75;5020515;28;20679;-81
2023/08/29 01:56:22;;;;;;;9.38;6.90;;;;;;;15.52;76.70;98955.13;5039095;28;20535;-81
2023/08/29 01:58:51;;;;;;;8.93;6.70;;;;;;;15.51;76.65;98964.06;5021114;28;20312;-80
2023/08/29 02:01:18;;;;;;;6.78;6.07;;;;;;;15.47;76.65;98967.94;5036886;28;20205;-79
2023/08/29 02:03:44;;;;;;;7.77;7.07;;;;;;;15.44;76.77;98962.94;5037996;28;20201;-79
2023/08/29 02:06:10;;;;;;;9.02;7.40;;;;;;;15.43;76.90;98956.00;5035544;28;20439;-80
2023/08/29 02:08:36;;;;;;;8.43;7.50;;;;;;;15.40;76.95;98946.53;5035939;28;20682;-80
2023/08/29 02:11:01;;;;;;;8.03;7.20;;;;;;;15.41;77.05;98947.38;5013464;28;20468;-79
2023/08/29 02:13:27;;;;;;;8.03;6.57;;;;;;;15.40;77.12;98948.34;5034335;28;20230;-80
2023/08/29 02:15:54;;;;;;;11.20;7.73;;;;;;;15.39;76.94;98944.03;5035513;28;20202;-79
2023/08/29 02:18:20;;;;;;;10.20;7.25;;;;;;;15.38;77.08;98947.66;5015067;28;20722;-79
2023/08/29 02:20:45;;;;;;;11.43;7.60;;;;;;;15.39;77.20;98946.66;5033629;28;20279;-79
2023/08/29 02:23:11;;;;;;;8.00;7.20;;;;;;;15.40;77.16;98945.72;5036368;28;20234;-79
2023/08/29 02:25:36;;;;;;;8.83;6.60;;;;;;;15.40;77.06;98938.59;5031548;28;20558;-79
2023/08/29 02:28:02;;;;;;;8.67;7.50;;;;;;;15.42;77.01;98941.94;5031315;28;20781;-79
2023/08/29 02:30:27;;;;;;;8.70;6.60;;;;;;;15.45;77.00;98946.13;5012774;28;20206;-79
2023/08/29 02:32:53;;;;;;;7.10;6.05;;;;;;;15.46;76.83;98939.81;5011639;28;20232;-79
2023/08/29 02:35:19;;;;;;;8.07;6.70;;;;;;;15.45;76.78;98944.28;5033740;28;20181;-79
2023/08/29 02:37:44;;;;;;;9.00;6.37;;;;;;;15.43;76.74;98940.13;5036716;28;20206;-79
2023/08/29 02:40:10;;;;;;;8.20;6.47;;;;;;;15.44;76.97;98941.78;5036313;28;20494;-79
2023/08/29 02:42:36;;;;;;;8.23;7.33;;;;;;;15.42;76.99;98936.66;5038086;28;20212;-78
2023/08/29 02:45:03;;;;;;;11.98;8.52;;;;;;;15.42;76.89;98941.13;5035796;28;20208;-78
2023/08/29 02:47:29;;;;;;;10.05;7.57;;;;;;;15.39;77.09;98939.59;5033654;28;20201;-78
2023/08/29 02:49:54;;;;;;;9.70;6.37;;;;;;;15.38;77.29;98947.66;5035257;28;20268;-78
2023/08/29 02:52:20;;;;;;;9.00;7.25;;;;;;;15.37;77.29;98943.34;5037669;28;20195;-78
2023/08/29 02:54:46;;;;;;;8.10;6.13;;;;;;;15.33;77.32;98945.44;5039888;28;20209;-79
2023/08/29 02:57:11;;;;;;;7.53;6.80;;;;;;;15.29;77.37;98945.88;5037436;28;20697;-78
2023/08/29 02:59:37;;;;;;;7.17;6.47;;;;;;;15.25;77.64;98943.50;5036061;28;20225;-78
2023/08/29 03:02:03;;;;;;;7.73;6.97;;;;;;;15.26;77.70;98944.38;5037609;28;20194;-77
2023/08/29 03:04:32;;;;;;;7.85;7.03;;;;;;;15.26;77.66;98947.00;5024761;28;20190;-77
2023/08/29 03:06:58;;;;;;;7.75;6.75;;;;;;;15.27;77.61;98949.50;5024263;28;20216;-77
2023/08/29 03:09:24;;;;;;;7.60;6.80;;;;;;;15.27;77.71;98941.56;5023812;28;20471;-77
2023/08/29 03:11:52;;;;;;;6.17;5.50;;;;;;;15.31;77.46;98943.91;5022180;28;21457;-77
2023/08/29 03:14:18;;;;;;;7.10;6.40;;;;;;;15.27;77.46;98940.72;5039501;28;20259;-78
2023/08/29 03:16:44;;;;;;;7.10;6.13;;;;;;;15.25;77.47;98934.75;5021969;28;20262;-78
2023/08/29 03:19:09;;;;;;;7.13;6.27;;;;;;;15.24;77.63;98939.19;5018537;28;20744;-78
2023/08/29 03:21:35;;;;;;;9.27;6.60;;;;;;;15.26;77.46;98928.50;5037627;28;20222;-78
2023/08/29 03:24:00;;;;;;;7.00;6.13;;;;;;;15.23;77.43;98929.59;5038767;28;20220;-78
2023/08/29 03:26:25;;;;;;;8.97;7.80;;;;;;;15.18;77.72;98934.50;5039791;28;20204;-79
2023/08/29 03:28:51;;;;;;;17.67;7.93;;;;;;;15.18;77.64;98936.31;5036402;28;20193;-79
2023/08/29 03:31:17;;;;;;;7.90;6.73;;;;;;;15.16;77.56;98928.50;5038494;28;20259;-79
2023/08/29 03:33:44;;;;;;;7.60;6.90;;;;;;;15.18;77.91;98931.84;5018274;28;20290;-78
2023/08/29 03:36:10;;;;;;;11.07;7.32;;;;;;;15.24;78.06;98931.25;5033513;28;20968;-79
2023/08/29 03:38:37;;;;;;;7.40;6.70;;;;;;;15.27;78.04;98925.69;5015981;28;20203;-78
2023/08/29 03:41:04;;;;;;;7.43;6.65;;;;;;;15.25;77.87;98919.69;5014598;28;20485;-78
2023/08/29 03:43:31;;;;;;;8.52;6.60;;;;;;;15.22;78.10;98912.03;5035874;28;20201;-79
2023/08/29 03:46:02;;;;;;;10.25;6.55;;;;;;;15.20;78.04;98924.59;5017554;28;20705;-79
2023/08/29 03:48:28;;;;;;;6.53;5.80;;;;;;;15.18;78.18;98923.91;5038761;28;20194;-79
2023/08/29 03:50:54;;;;;;;8.82;7.68;;;;;;;15.17;78.37;98919.56;5019658;28;20210;-78
2023/08/29 03:53:19;;;;;;;7.93;7.13;;;;;;;15.19;78.23;98922.09;5022364;28;20205;-78
2023/08/29 03:55:46;;;;;;;7.70;6.50;;;;;;;15.19;78.22;98920.28;5039426;28;20194;-78
2023/08/29 03:58:11;;;;;;;6.50;5.30;;;;;;;15.16;78.26;98928.50;5018853;28;20217;-79
2023/08/29 04:00:37;;;;;;;8.73;6.00;;;;;;;15.13;78.25;98920.84;5020990;28;20333;-79
2023/08/29 04:03:06;;;;;;;8.87;6.70;;;;;;;15.12;78.14;98923.63;5023672;28;20788;-84
2023/08/29 04:05:32;;;;;;;7.68;6.32;;;;;;;15.08;78.20;98920.44;5023464;28;20174;-84
2023/08/29 04:07:58;;;;;;;8.40;6.30;;;;;;;15.06;78.11;98922.41;5040942;28;20204;-84
2023/08/29 04:10:24;;;;;;;5.67;5.10;;;;;;;15.06;78.21;98919.75;5022471;28;20214;-84
2023/08/29 04:12:49;;;;;;;8.07;6.33;;;;;;;15.06;78.11;98919.75;5041099;28;20209;-84
2023/08/29 04:15:15;;;;;;;6.47;5.87;;;;;;;15.06;78.28;98917.09;5040451;28;20205;-84
2023/08/29 04:17:40;;;;;;;8.50;5.77;;;;;;;15.09;78.10;98916.00;5039755;28;20255;-84
2023/08/29 04:20:08;;;;;;;6.50;5.63;;;;;;;15.08;78.02;98923.09;5023957;28;20226;-84
2023/08/29 04:22:38;;;;;;;6.32;5.68;;;;;;;15.09;77.97;98926.56;5039302;28;20197;-81
2023/08/29 04:25:07;;;;;;;7.35;5.15;;;;;;;15.08;78.06;98919.63;5020082;28;20291;-83
2023/08/29 04:27:32;;;;;;;6.43;5.15;;;;;;;15.09;78.03;98914.16;5036718;28;20210;-81
2023/08/29 04:29:58;;;;;;;6.00;5.30;;;;;;;15.08;77.93;98917.81;5018616;28;20255;-79
2023/08/29 04:32:24;;;;;;;5.63;4.70;;;;;;;15.08;77.76;98915.16;5019122;28;20852;-80
2023/08/29 04:34:49;;;;;;;5.32;4.47;;;;;;;15.08;77.96;98922.28;5018280;28;20199;-81
2023/08/29 04:37:16;;;;;;;6.87;5.60;;;;;;;15.07;78.00;98926.72;5036559;28;20216;-83
2023/08/29 04:39:42;;;;;;;7.78;5.30;;;;;;;15.07;77.90;98934.66;5016521;28;20216;-82
2023/08/29 04:42:07;;;;;;;6.87;5.03;;;;;;;15.04;78.03;98932.28;5019454;28;20198;-83
2023/08/29 04:44:33;;;;;;;5.13;4.63;;;;;;;15.03;78.14;98934.09;5038530;28;20674;-82
2023/08/29 04:46:59;;;;;;;5.72;4.90;;;;;;;15.04;77.94;98933.13;5018730;28;20662;-82
2023/08/29 04:49:25;;;;;;;6.40;5.00;;;;;;;15.01;77.73;98929.94;5017043;28;20217;-80
2023/08/29 04:51:50;;;;;;;6.90;5.80;;;;;;;15.00;78.06;98933.56;5035523;28;20193;-82
2023/08/29 04:54:16;;;;;;;6.97;4.35;;;;;;;14.97;78.19;98928.56;5037295;28;20896;-82
2023/08/29 04:56:42;;;;;;;7.60;5.10;;;;;;;14.95;78.20;98935.78;5036251;28;20283;-80
2023/08/29 04:59:07;;;;;;;4.50;4.10;;;;;;;14.93;78.20;98929.81;5033398;28;20209;-79
2023/08/29 05:01:33;;;;;;;5.63;4.83;;;;;;;14.92;78.26;98922.84;5000595;28;20198;-80
2023/08/29 05:03:59;;;;;;;5.00;4.40;;;;;;;14.89;78.12;98929.25;5018965;28;20181;-82
2023/08/29 05:06:25;;;;;;;5.70;4.40;;;;;;;14.89;78.21;98929.25;5017127;28;20275;-80
2023/08/29 05:08:51;;;;;;;4.67;4.17;;;;;;;14.89;78.32;98929.25;5016269;28;20866;-80
2023/08/29 05:11:18;;;;;;;5.00;4.50;;;;;;;14.89;78.23;98931.06;5035570;28;20271;-81
2023/08/29 05:13:43;;;;;;;7.13;5.07;;;;;;;14.89;78.12;98931.06;5017755;28;20194;-79
2023/08/29 05:16:09;;;;;;;5.07;4.23;;;;;;;14.91;78.15;98931.78;5036900;28;20209;-83
2023/08/29 05:18:34;;;;;;;4.90;4.40;;;;;;;14.91;78.05;98931.78;5015403;28;20235;-81
2023/08/29 05:21:00;;;;;;;5.47;5.00;;;;;;;14.90;78.18;98928.28;5036129;28;20444;-82
2023/08/29 05:23:26;;;;;;;6.53;4.65;;;;;;;14.89;78.14;98931.06;5018126;28;20263;-82
2023/08/29 05:25:52;;;;;;;6.20;5.60;;;;;;;14.90;78.14;98930.91;5037962;28;20505;-84
2023/08/29 05:28:18;;;;;;;5.70;5.20;;;;;;;14.92;78.40;98928.16;5035498;28;20664;-82
2023/08/29 05:30:43;;;;;;;6.00;5.23;;;;;;;14.93;78.14;98925.38;5034793;28;20459;-81
2023/08/29 05:33:09;;;;;;;5.60;4.93;;;;;;;14.95;78.14;98926.03;5034765;28;20376;-81
2023/08/29 05:35:34;;;;;;;4.53;4.00;;;;;;;14.96;78.22;98935.66;5037084;28;20658;-79
2023/08/29 05:38:00;;;;;;;6.67;5.33;;;;;;;14.97;78.15;98934.66;5039066;28;20701;-79
2023/08/29 05:40:25;;;;;;;6.27;4.83;;;;;;;14.98;78.17;98930.22;5039676;28;20209;-80
2023/08/29 05:42:51;;;;;;;4.83;4.33;;;;;;;15.00;78.15;98933.56;5041241;28;20198;-79
2023/08/29 05:45:19;;;;;;;4.88;4.25;;;;;;;14.99;77.86;98940.66;5023096;28;20197;-79
2023/08/29 05:47:44;;;;;;;5.83;4.63;;;;;;;14.98;78.04;98949.56;5040385;28;20612;-81
2023/08/29 05:50:10;;;;;;;6.53;5.10;;;;;;;15.01;77.99;98949.28;5043856;28;20198;-79
2023/08/29 05:52:35;;;;;;;5.50;5.10;;;;;;;15.02;78.04;98950.94;5042752;28;20676;-79
2023/08/29 05:55:01;;;;;;;5.20;4.20;;;;;;;15.04;77.77;98949.00;5041514;28;20202;-80
2023/08/29 05:57:26;;;;;;;5.80;4.70;;;;;;;15.04;77.85;98956.09;5023832;28;20206;-83
2023/08/29 05:59:53;;;;;;;5.43;4.23;;;;;;;15.05;77.92;98957.78;5042036;28;20222;-81
2023/08/29 06:02:19;;;;;;;5.88;4.07;;;;;;;15.07;77.82;98961.13;5043371;28;20213;-81
2023/08/29 06:04:46;;;;;;;6.03;5.33;;;;;;;15.09;77.79;98956.50;5039543;28;20202;-79
2023/08/29 06:07:12;;;;;;;6.30;5.45;;;;;;;15.13;77.83;98957.06;5037808;28;20482;-84
2023/08/29 06:09:38;;;;;;;6.63;4.25;;;;;;;15.13;77.75;98955.25;5035360;28;20202;-84
2023/08/29 06:12:04;;;;;;;4.33;3.83;;;;;;;15.11;77.71;98951.06;5039040;28;20194;-83
2023/08/29 06:14:30;;;;;;;4.93;3.60;;;;;;;15.11;77.86;98951.91;5020910;28;20495;-82
2023/08/29 06:16:56;;;;;;;5.23;3.63;;;;;;;15.13;77.72;98965.00;5038245;28;20197;-82
2023/08/29 06:19:22;;;;;;;6.13;3.92;;;;;;;15.14;77.70;98956.91;5019398;28;20508;-80
2023/08/29 06:21:49;;;;;;;4.40;3.97;;;;;;;15.16;77.43;98962.06;5036025;28;20225;-81
2023/08/29 06:24:17;;;;;;;5.00;4.28;;;;;;;15.15;77.20;98963.88;5038561;28;20202;-83
2023/08/29 06:26:43;;;;;;;4.27;3.87;;;;;;;15.15;77.12;98963.88;5037260;28;20614;-80
2023/08/29 06:29:08;;;;;;;4.53;4.10;;;;;;;15.16;77.21;98968.19;5035676;28;20479;-83
2023/08/29 06:31:34;;;;;;;3.80;3.40;;;;;;;15.19;77.21;98967.91;5030957;28;20383;-79
2023/08/29 06:33:59;;;;;;;4.30;3.70;;;;;;;15.23;76.65;98971.94;5032513;28;20639;-82
2023/08/29 06:36:27;;;;;;;4.73;4.33;;;;;;;15.25;76.99;98977.06;5032717;28;20531;-83
2023/08/29 06:38:58;;;;;;;3.78;3.30;;;;;;;15.27;76.60;98975.94;5031224;28;20210;-81
2023/08/29 06:41:24;;;;;;;4.28;3.58;;;;;;;15.29;76.60;98983.75;5030688;28;20336;-82
2023/08/29 06:43:52;;;;;;;3.40;3.10;;;;;;;15.29;76.21;98986.41;5030924;28;20276;-82
2023/08/29 06:46:17;;;;;;;5.50;3.70;;;;;;;15.26;76.45;98982.22;5029594;28;20190;-83
2023/08/29 06:48:43;;;;;;;4.57;3.17;;;;;;;15.27;76.31;98983.06;5030027;28;20697;-81
2023/08/29 06:51:15;;;;;;;5.83;3.43;;;;;;;15.30;76.32;98981.94;5030346;28;20206;-83
2023/08/29 06:53:41;;;;;;;3.25;2.88;;;;;;;15.34;76.16;98991.25;5032528;28;20232;-81
2023/08/29 06:56:06;;;;;;;5.10;3.20;;;;;;;15.37;76.01;98993.63;5027680;28;20243;-83
2023/08/29 06:58:32;;;;;;;5.23;4.30;;;;;;;15.40;75.92;98988.06;5030461;28;20194;-83
2023/08/29 07:00:57;;;;;;;5.10;3.67;;;;;;;15.43;75.67;98985.13;5030564;28;20643;-80
2023/08/29 07:03:23;;;;;;;7.83;4.03;;;;;;;15.43;75.71;98988.59;5028992;28;20236;-79
2023/08/29 07:05:48;;;;;;;4.70;3.73;;;;;;;15.47;75.78;98986.47;5028856;28;20443;-84
2023/08/29 07:08:14;;;;;;;3.53;3.23;;;;;;;15.50;75.79;98986.22;5013295;28;20183;-82
2023/08/29 07:10:40;;;;;;;4.30;3.80;;;;;;;15.54;75.57;98987.59;4996549;28;20207;-80
2023/08/29 07:13:06;;;;;;;4.60;3.43;;;;;;;15.58;75.49;98988.97;5031366;28;20228;-81
2023/08/29 07:15:31;;;;;;;5.10;4.60;;;;;;;15.63;75.38;98986.69;5012016;28;20194;-81
2023/08/29 07:17:57;;;;;;;4.77;4.30;;;;;;;15.66;75.31;98983.78;5029796;28;21097;-83
2023/08/29 07:20:49;;;;;;;5.97;3.60;;;;;;;15.69;75.20;98988.81;5030175;28;20252;-81
2023/08/29 07:23:14;;;;;;;5.82;4.50;;;;;;;15.75;75.18;98986.56;5033496;28;20235;-82
2023/08/29 07:25:43;;;;;;;6.43;5.77;;;;;;;15.82;74.97;98985.00;5033676;28;20764;-82
2023/08/29 07:28:11;;;;;;;8.23;7.00;;;;;;;15.89;74.83;98994.84;5036448;28;20198;-80
2023/08/29 07:30:48;;;;;;;7.47;5.95;;;;;;;15.97;74.43;98994.13;5035502;28;20277;-83
2023/08/29 07:33:17;;;;;;;4.75;4.35;;;;;;;16.05;74.12;99004.00;5036904;28;20195;-84
2023/08/29 07:35:43;;;;;;;4.80;4.35;;;;;;;16.10;74.15;99002.56;5037554;28;20549;-82
2023/08/29 07:38:09;;;;;;;7.82;5.10;;;;;;;16.17;73.89;99002.78;5034653;28;20397;-80
2023/08/29 07:40:34;;;;;;;7.43;4.85;;;;;;;16.21;73.61;99006.00;5032608;28;21300;-83
2023/08/29 07:43:05;;;;;;;4.87;4.47;;;;;;;16.25;73.24;99007.34;5036376;28;20728;-80
2023/08/29 07:45:32;;;;;;;5.68;4.03;;;;;;;16.26;73.46;99007.22;5032208;28;20196;-83
2023/08/29 07:47:57;;;;;;;3.65;3.35;;;;;;;16.26;73.22;99006.41;5034293;28;20232;-83
2023/08/29 07:50:23;;;;;;;4.03;3.63;;;;;;;16.29;73.38;99008.75;5036936;28;21141;-82
2023/08/29 07:52:51;;;;;;;4.27;3.90;;;;;;;16.34;72.93;99014.44;5036250;28;20254;-81
2023/08/29 07:55:22;;;;;;;4.10;3.70;;;;;;;16.40;72.89;99010.34;5038126;28;20207;-82
2023/08/29 07:57:48;;;;;;;4.10;3.70;;;;;;;16.47;72.94;99012.25;5021711;28;20218;-83
2023/08/29 08:00:14;;;;;;;4.27;3.87;;;;;;;16.54;72.57;99007.19;5037119;28;20260;-83
2023/08/29 08:02:40;;;;;;;5.07;4.00;;;;;;;16.61;72.60;99013.56;5021407;28;20215;-82
2023/08/29 08:05:12;;;;;;;4.38;4.07;;;;;;;16.67;72.28;99017.41;5021198;28;20758;-81
2023/08/29 08:07:38;;;;;;;5.40;4.93;;;;;;;16.70;72.34;99020.59;5038056;28;20203;-82
2023/08/29 08:10:07;;;;;;;4.70;4.20;;;;;;;16.71;72.26;99022.25;5040552;28;20268;-85
2023/08/29 08:12:34;;;;;;;6.43;4.35;;;;;;;16.73;72.38;99019.47;5043374;28;20677;-82
2023/08/29 08:15:00;;;;;;;5.68;3.97;;;;;;;16.75;72.08;99022.81;5023722;28;20212;-84
2023/08/29 08:17:26;;;;;;;3.95;3.53;;;;;;;16.75;72.08;99022.81;5038400;28;20204;-87
2023/08/29 08:19:51;;;;;;;4.27;3.97;;;;;;;16.74;71.56;99016.66;5040040;28;20264;-84
2023/08/29 08:22:17;;;;;;;4.57;4.17;;;;;;;16.69;72.05;99018.09;5038064;28;20206;-86
2023/08/29 08:24:42;;;;;;;3.93;3.60;;;;;;;16.65;72.31;99022.03;5038661;28;20213;-82
2023/08/29 08:27:08;;;;;;;5.90;4.23;;;;;;;16.65;71.87;99022.03;5020933;28;20317;-81
2023/08/29 08:29:34;;;;;;;4.43;3.47;;;;;;;16.63;72.18;99024.00;5038141;28;20202;-86
2023/08/29 08:31:59;;;;;;;5.20;4.47;;;;;;;16.67;72.25;99020.91;5039791;28;20186;-83
2023/08/29 08:34:25;;;;;;;6.00;4.90;;;;;;;16.74;72.20;99015.81;5037855;28;20725;-83
2023/08/29 08:36:51;;;;;;;5.68;4.88;;;;;;;16.83;71.96;99017.59;5037753;28;20419;-84
2023/08/29 08:39:17;;;;;;;4.60;4.20;;;;;;;16.91;71.84;99020.31;5036057;28;20754;-81
2023/08/29 08:41:43;;;;;;;4.55;4.22;;;;;;;16.98;71.56;99012.56;5036992;28;20199;-82
2023/08/29 08:44:11;;;;;;;3.80;3.25;;;;;;;17.03;71.35;99016.44;5040367;28;20506;-87
2023/08/29 08:46:38;;;;;;;4.40;4.00;;;;;;;17.14;71.16;99018.00;5038173;28;20698;-82
2023/08/29 08:49:04;;;;;;;4.55;3.85;;;;;;;17.23;71.07;99013.63;5037789;28;20436;-85
2023/08/29 08:51:31;;;;;;;5.10;3.83;;;;;;;17.32;70.37;99018.00;5042429;28;20203;-84
2023/08/29 08:53:57;;;;;;;5.15;4.22;;;;;;;17.40;69.90;99011.91;5045266;28;20470;-81
2023/08/29 08:56:27;;;;;;;4.47;4.05;;;;;;;17.48;69.72;99020.75;5046116;28;20221;-85
2023/08/29 08:58:53;;;;;;;4.95;4.45;;;;;;;17.61;69.49;99016.88;5043425;28;20201;-83
2023/08/29 09:01:18;;;;;;;4.30;3.90;;;;;;;17.70;69.09;99010.59;5037888;28;20250;-83
2023/08/29 09:03:45;;;;;;;4.67;4.27;;;;;;;17.81;68.95;99004.22;5021488;28;20767;-85
2023/08/29 09:06:13;;;;;;;5.50;4.15;;;;;;;17.92;68.36;99007.41;5042692;28;21156;-83
2023/08/29 09:08:42;;;;;;;4.53;4.17;;;;;;;18.06;67.71;99007.78;5040688;28;20496;-82
2023/08/29 09:11:08;;;;;;;8.10;5.03;;;;;;;18.14;67.45;99000.69;5041338;28;20470;-85
2023/08/29 09:13:34;;;;;;;5.43;4.93;;;;;;;18.31;67.18;99006.91;5039934;28;20703;-82
2023/08/29 09:16:00;;;;;;;3.60;3.30;;;;;;;18.54;66.73;98998.31;5041292;28;20474;-83
2023/08/29 09:18:31;;;;;;;4.70;4.30;;;;;;;18.76;65.58;99003.00;5042124;28;20205;-87
2023/08/29 09:21:00;;;;;;;3.97;3.70;;;;;;;18.84;65.45;98996.88;5040178;28;20487;-84
2023/08/29 09:23:36;;;;;;;4.50;3.90;;;;;;;18.92;64.97;99001.38;5040642;28;20971;-81
2023/08/29 09:26:01;;;;;;;9.10;7.00;;;;;;;19.08;64.64;99005.88;5039683;28;20463;-84
2023/08/29 09:28:29;;;;;;;12.57;8.23;;;;;;;19.15;64.17;99010.34;5039402;28;20460;-85
2023/08/29 09:31:05;;;;;;;5.90;5.40;;;;;;;19.20;63.86;99002.69;5037740;28;20202;-83
2023/08/29 09:33:32;;;;;;;5.73;4.43;;;;;;;19.23;63.77;99007.69;5037103;28;20436;-82
2023/08/29 09:36:00;;;;;;;5.73;4.37;;;;;;;19.29;63.71;99000.03;5017721;28;20464;-85
2023/08/29 09:38:29;;;;;;;4.60;4.10;;;;;;;19.41;63.23;98998.66;5018152;28;20463;-84
2023/08/29 09:40:57;;;;;;;5.60;4.57;;;;;;;19.52;62.82;99000.97;5034418;28;20487;-82
2023/08/29 09:43:23;;;;;;;4.37;4.07;;;;;;;19.58;62.54;98997.66;5037407;28;20520;-85
2023/08/29 09:45:50;;;;;;;6.87;5.53;;;;;;;19.61;62.47;98994.63;5037459;28;20832;-83
2023/08/29 09:48:16;;;;;;;4.43;4.00;;;;;;;19.60;62.05;98995.63;5036041;28;20613;-85
2023/08/29 09:50:49;;;;;;;5.13;4.47;;;;;;;19.56;62.08;98993.50;5037452;28;20448;-83
2023/08/29 09:53:19;;;;;;;4.00;3.70;;;;;;;19.59;62.03;98996.63;5038838;28;20452;-82
2023/08/29 09:55:48;;;;;;;5.03;4.53;;;;;;;19.66;61.51;98997.66;5036095;28;20733;-81
2023/08/29 09:58:15;;;;;;;5.33;4.03;;;;;;;19.75;61.38;98986.97;5034978;28;21236;-84
2023/08/29 10:00:43;;;;;;;5.03;4.60;;;;;;;19.85;60.79;98990.28;5040986;28;20566;-86
2023/08/29 10:03:10;;;;;;;4.13;3.83;;;;;;;19.85;60.42;99000.94;5043292;28;20461;-85
2023/08/29 10:05:39;;;;;;;5.13;4.60;;;;;;;19.86;60.14;98994.59;5030324;28;20800;-85
2023/08/29 10:08:15;;;;;;;5.83;5.30;;;;;;;19.87;60.11;98996.25;5035273;28;20921;-86
2023/08/29 10:10:46;;;;;;;6.90;4.83;;;;;;;19.90;59.91;98990.56;5025605;28;20903;-84
2023/08/29 10:13:13;;;;;;;4.77;4.33;;;;;;;19.90;59.28;98987.91;5030340;28;20476;-82
2023/08/29 10:15:44;;;;;;;4.90;4.50;;;;;;;19.87;59.42;98993.56;5044091;28;20455;-86
2023/08/29 10:18:13;;;;;;;5.33;4.10;;;;;;;19.89;59.26;98984.41;5045108;28;20452;-88
2023/08/29 10:20:44;;;;;;;5.30;4.90;;;;;;;19.93;59.14;98990.25;5029412;28;20491;-86
2023/08/29 10:23:10;;;;;;;11.00;5.63;;;;;;;19.92;59.07;98990.41;5010563;28;20467;-84
2023/08/29 10:25:38;;;;;;;7.57;5.73;;;;;;;19.88;59.38;98989.94;5028215;28;20471;-82
2023/08/29 10:28:07;;;;;;;4.57;4.17;;;;;;;19.88;59.21;98992.59;5044779;28;20452;-84
2023/08/29 10:30:34;;;;;;;6.23;5.13;;;;;;;19.89;59.39;98988.91;5039815;28;20460;-84
2023/08/29 10:33:02;;;;;;;5.43;4.93;;;;;;;19.93;58.98;98992.91;5041560;28;20444;-86
2023/08/29 10:35:32;;;;;;;5.70;4.70;;;;;;;19.88;58.96;98992.59;5027423;28;20530;-87
2023/08/29 10:38:00;;;;;;;5.93;5.33;;;;;;;19.90;58.98;98990.56;5045014;28;20571;-82
2023/08/29 10:40:36;;;;;;;5.20;4.80;;;;;;;19.99;58.74;98986.88;5042896;28;20528;-84
2023/08/29 10:43:03;;;;;;;7.70;5.53;;;;;;;20.00;58.31;98990.38;5045891;28;20468;-85
2023/08/29 10:45:57;;;;;;;6.77;5.77;;;;;;;20.02;58.17;98996.38;5039089;28;20544;-85
2023/08/29 10:48:43;;;;;;;4.77;4.37;;;;;;;20.11;58.02;98980.13;5039068;28;20980;-85
2023/08/29 10:51:10;;;;;;;5.83;4.83;;;;;;;20.28;57.64;98972.06;5027818;28;20472;-82
2023/08/29 10:53:52;;;;;;;5.83;5.23;;;;;;;20.28;57.16;98964.91;5041529;28;20564;-85
2023/08/29 10:56:20;;;;;;;5.80;5.40;;;;;;;20.33;57.00;98967.88;5039634;28;20807;-84
2023/08/29 10:58:47;;;;;;;5.13;4.63;;;;;;;20.36;57.07;98976.50;5042333;28;20466;-87
2023/08/29 11:01:30;;;;;;;5.73;5.23;;;;;;;20.44;56.90;98958.66;5026545;28;20661;-86
2023/08/29 11:04:00;;;;;;;5.00;4.37;;;;;;;20.48;56.79;98962.59;5044486;28;20482;-82
2023/08/29 11:06:47;;;;;;;7.00;4.73;;;;;;;20.59;56.57;98965.91;5044203;28;20500;-86
2023/08/29 11:09:20;;;;;;;6.37;5.00;;;;;;;20.68;56.20;98957.63;5045808;28;20765;-84
2023/08/29 11:12:10;;;;;;;6.20;5.60;;;;;;;20.70;55.72;98960.97;5031072;28;20535;-86
2023/08/29 11:14:55;;;;;;;5.97;5.30;;;;;;;20.58;55.77;98966.91;5043911;28;20451;-88
2023/08/29 11:17:25;;;;;;;6.07;4.97;;;;;;;20.57;56.08;98952.72;5043775;28;20500;-86
2023/08/29 11:19:55;;;;;;;5.53;5.00;;;;;;;20.57;55.99;98949.22;5041419;28;20465;-83
2023/08/29 11:22:22;;;;;;;5.57;4.90;;;;;;;20.59;56.24;98955.22;5044413;28;20456;-84
2023/08/29 11:24:54;;;;;;;5.80;4.97;;;;;;;20.60;55.83;98941.69;5040012;28;20893;-81
2023/08/29 11:27:24;;;;;;;7.00;4.87;;;;;;;20.63;55.89;98948.50;5042417;28;20556;-83
2023/08/29 11:29:52;;;;;;;6.03;4.60;;;;;;;20.72;55.45;98950.97;5039318;28;21104;-83
2023/08/29 11:32:19;;;;;;;6.33;5.33;;;;;;;20.81;54.89;98953.56;5018372;28;20468;-85
2023/08/29 11:34:49;;;;;;;6.50;5.10;;;;;;;20.83;54.52;98949.69;5037716;28;20449;-82